sensor_id;sensor_type;location;lat;lon;timestamp;pressure;altitude;pressure_sealevel;temperature;humidity
84245;BME280;74383;44.552;18.100;2023-12-22T00:00:47;97727.34;;;6.29;73.39
84245;BME280;74383;44.552;18.100;2023-12-22T00:03:14;97726.53;;;6.28;73.52
84245;BME280;74383;44.552;18.100;2023-12-22T00:05:40;97719.66;;;6.27;74.05
84245;BME280;74383;44.552;18.100;2023-12-22T00:08:06;97723.53;;;6.36;73.58
84245;BME280;74383;44.552;18.100;2023-12-22T00:10:32;97713.06;;;6.13;74.57
84245;BME280;74383;44.552;18.100;2023-12-22T00:12:57;97710.50;;;6.30;74.24
84245;BME280;74383;44.552;18.100;2023-12-22T00:15:23;97700.06;;;6.35;74.11
84245;BME280;74383;44.552;18.100;2023-12-22T00:17:48;97702.88;;;6.45;73.58
84245;BME280;74383;44.552;18.100;2023-12-22T00:20:14;97699.03;;;6.36;73.74
84245;BME280;74383;44.552;18.100;2023-12-22T00:22:40;97699.34;;;6.39;74.13
84245;BME280;74383;44.552;18.100;2023-12-22T00:25:06;97697.59;;;6.45;73.89
84245;BME280;74383;44.552;18.100;2023-12-22T00:27:33;97692.50;;;6.38;73.63
84245;BME280;74383;44.552;18.100;2023-12-22T00:29:59;97682.19;;;6.37;74.33
84245;BME280;74383;44.552;18.100;2023-12-22T00:32:24;97678.84;;;6.41;74.30
84245;BME280;74383;44.552;18.100;2023-12-22T00:34:50;97682.75;;;6.39;74.22
84245;BME280;74383;44.552;18.100;2023-12-22T00:37:16;97685.63;;;6.37;74.40
84245;BME280;74383;44.552;18.100;2023-12-22T00:39:41;97679.25;;;6.22;74.79
84245;BME280;74383;44.552;18.100;2023-12-22T00:42:07;97676.88;;;6.20;75.04
84245;BME280;74383;44.552;18.100;2023-12-22T00:44:33;97680.53;;;6.19;75.12
84245;BME280;74383;44.552;18.100;2023-12-22T00:46:58;97671.91;;;6.24;74.42
84245;BME280;74383;44.552;18.100;2023-12-22T00:49:24;97681.97;;;6.27;74.33
84245;BME280;74383;44.552;18.100;2023-12-22T00:51:49;97685.56;;;6.21;74.53
84245;BME280;74383;44.552;18.100;2023-12-22T00:54:15;97690.75;;;6.15;74.70
84245;BME280;74383;44.552;18.100;2023-12-22T00:56:41;97696.47;;;6.12;75.23
84245;BME280;74383;44.552;18.100;2023-12-22T00:59:06;97687.53;;;6.13;75.28
84245;BME280;74383;44.552;18.100;2023-12-22T01:01:32;97695.63;;;6.24;74.87
84245;BME280;74383;44.552;18.100;2023-12-22T01:03:57;97698.16;;;6.19;75.13
84245;BME280;74383;44.552;18.100;2023-12-22T01:06:23;97700.44;;;6.27;75.00
84245;BME280;74383;44.552;18.100;2023-12-22T01:08:48;97692.38;;;6.33;74.33
84245;BME280;74383;44.552;18.100;2023-12-22T01:11:16;97692.25;;;6.40;74.67
84245;BME280;74383;44.552;18.100;2023-12-22T01:13:43;97696.69;;;6.23;75.38
84245;BME280;74383;44.552;18.100;2023-12-22T01:16:08;97692.84;;;6.30;75.14
84245;BME280;74383;44.552;18.100;2023-12-22T01:18:34;97696.38;;;6.36;74.69
84245;BME280;74383;44.552;18.100;2023-12-22T01:20:59;97709.19;;;6.44;74.57
84245;BME280;74383;44.552;18.100;2023-12-22T01:23:25;97717.09;;;6.44;74.09
84245;BME280;74383;44.552;18.100;2023-12-22T01:25:51;97716.53;;;6.42;74.20
84245;BME280;74383;44.552;18.100;2023-12-22T01:28:17;97712.94;;;6.48;74.13
84245;BME280;74383;44.552;18.100;2023-12-22T01:30:42;97709.56;;;6.36;74.86
84245;BME280;74383;44.552;18.100;2023-12-22T01:33:08;97708.88;;;6.40;74.37
84245;BME280;74383;44.552;18.100;2023-12-22T01:35:33;97720.53;;;6.44;73.65
84245;BME280;74383;44.552;18.100;2023-12-22T01:37:59;97708.56;;;6.53;73.90
84245;BME280;74383;44.552;18.100;2023-12-22T01:40:25;97709.31;;;6.65;72.59
84245;BME280;74383;44.552;18.100;2023-12-22T01:42:50;97712.41;;;6.62;73.15
84245;BME280;74383;44.552;18.100;2023-12-22T01:45:16;97701.13;;;6.95;69.94
84245;BME280;74383;44.552;18.100;2023-12-22T01:47:42;97694.25;;;7.27;67.79
84245;BME280;74383;44.552;18.100;2023-12-22T01:50:08;97695.28;;;8.25;62.22
84245;BME280;74383;44.552;18.100;2023-12-22T01:52:37;97702.50;;;8.29;63.44
84245;BME280;74383;44.552;18.100;2023-12-22T01:55:05;97694.56;;;8.83;59.98
84245;BME280;74383;44.552;18.100;2023-12-22T01:57:33;97690.19;;;9.30;57.86
84245;BME280;74383;44.552;18.100;2023-12-22T02:00:00;97697.84;;;9.27;58.28
84245;BME280;74383;44.552;18.100;2023-12-22T02:02:26;97695.38;;;9.52;56.75
84245;BME280;74383;44.552;18.100;2023-12-22T02:04:53;97698.56;;;9.54;57.15
84245;BME280;74383;44.552;18.100;2023-12-22T02:07:19;97689.16;;;10.30;53.43
84245;BME280;74383;44.552;18.100;2023-12-22T02:09:45;97689.75;;;10.57;52.33
84245;BME280;74383;44.552;18.100;2023-12-22T02:12:10;97696.13;;;10.56;52.84
84245;BME280;74383;44.552;18.100;2023-12-22T02:14:36;97699.81;;;10.55;52.58
84245;BME280;74383;44.552;18.100;2023-12-22T02:19:48;97703.19;;;10.31;54.70
84245;BME280;74383;44.552;18.100;2023-12-22T02:22:14;97709.72;;;10.08;55.83
84245;BME280;74383;44.552;18.100;2023-12-22T02:24:41;97719.88;;;10.21;54.38
84245;BME280;74383;44.552;18.100;2023-12-22T02:27:13;97725.75;;;9.86;57.66
84245;BME280;74383;44.552;18.100;2023-12-22T02:29:49;97726.13;;;9.58;59.09
84245;BME280;74383;44.552;18.100;2023-12-22T02:32:27;97723.38;;;9.43;59.25
84245;BME280;74383;44.552;18.100;2023-12-22T02:34:55;97730.72;;;9.36;59.71
84245;BME280;74383;44.552;18.100;2023-12-22T02:37:22;97729.75;;;9.10;62.04
84245;BME280;74383;44.552;18.100;2023-12-22T02:39:50;97730.59;;;8.89;62.15
84245;BME280;74383;44.552;18.100;2023-12-22T02:42:16;97748.97;;;8.74;63.34
84245;BME280;74383;44.552;18.100;2023-12-22T02:44:42;97734.53;;;8.60;64.44
84245;BME280;74383;44.552;18.100;2023-12-22T02:47:08;97751.25;;;8.65;64.13
84245;BME280;74383;44.552;18.100;2023-12-22T02:49:33;97745.00;;;8.50;64.87
84245;BME280;74383;44.552;18.100;2023-12-22T02:51:59;97732.53;;;8.45;65.53
84245;BME280;74383;44.552;18.100;2023-12-22T02:54:25;97733.25;;;8.41;65.71
84245;BME280;74383;44.552;18.100;2023-12-22T02:56:53;97742.25;;;8.40;65.79
84245;BME280;74383;44.552;18.100;2023-12-22T02:59:19;97749.88;;;8.36;66.02
84245;BME280;74383;44.552;18.100;2023-12-22T03:01:44;97755.25;;;8.24;66.79
84245;BME280;74383;44.552;18.100;2023-12-22T03:04:10;97746.41;;;8.14;67.90
84245;BME280;74383;44.552;18.100;2023-12-22T03:06:35;97759.69;;;8.19;67.49
84245;BME280;74383;44.552;18.100;2023-12-22T03:09:01;97760.66;;;8.13;68.03
84245;BME280;74383;44.552;18.100;2023-12-22T03:11:28;97756.97;;;8.14;67.56
84245;BME280;74383;44.552;18.100;2023-12-22T03:13:53;97765.09;;;8.07;68.28
84245;BME280;74383;44.552;18.100;2023-12-22T03:16:19;97765.16;;;8.12;67.47
84245;BME280;74383;44.552;18.100;2023-12-22T03:18:44;97768.22;;;8.04;68.26
84245;BME280;74383;44.552;18.100;2023-12-22T03:21:16;97765.22;;;7.96;68.98
84245;BME280;74383;44.552;18.100;2023-12-22T03:23:43;97758.31;;;7.95;68.90
84245;BME280;74383;44.552;18.100;2023-12-22T03:26:09;97760.69;;;7.96;68.87
84245;BME280;74383;44.552;18.100;2023-12-22T03:28:35;97769.69;;;7.78;70.48
84245;BME280;74383;44.552;18.100;2023-12-22T03:31:00;97756.59;;;7.83;69.55
84245;BME280;74383;44.552;18.100;2023-12-22T03:33:26;97758.66;;;7.81;69.80
84245;BME280;74383;44.552;18.100;2023-12-22T03:35:51;97763.81;;;7.55;71.74
84245;BME280;74383;44.552;18.100;2023-12-22T03:38:17;97759.03;;;7.35;72.32
84245;BME280;74383;44.552;18.100;2023-12-22T03:40:43;97764.75;;;7.49;72.13
84245;BME280;74383;44.552;18.100;2023-12-22T03:43:08;97767.16;;;7.34;72.58
84245;BME280;74383;44.552;18.100;2023-12-22T03:45:34;97769.91;;;7.39;72.04
84245;BME280;74383;44.552;18.100;2023-12-22T03:47:59;97768.47;;;7.48;71.43
84245;BME280;74383;44.552;18.100;2023-12-22T03:50:25;97764.28;;;7.35;72.30
84245;BME280;74383;44.552;18.100;2023-12-22T03:52:50;97777.41;;;7.30;72.67
84245;BME280;74383;44.552;18.100;2023-12-22T03:55:16;97773.56;;;7.38;72.19
84245;BME280;74383;44.552;18.100;2023-12-22T03:57:43;97775.72;;;7.41;72.45
84245;BME280;74383;44.552;18.100;2023-12-22T04:00:09;97779.19;;;7.41;72.69
84245;BME280;74383;44.552;18.100;2023-12-22T04:02:34;97783.41;;;7.42;72.79
84245;BME280;74383;44.552;18.100;2023-12-22T04:05:00;97773.56;;;7.38;73.18
84245;BME280;74383;44.552;18.100;2023-12-22T04:07:25;97780.47;;;7.39;73.29
84245;BME280;74383;44.552;18.100;2023-12-22T04:09:51;97776.69;;;7.35;72.97
84245;BME280;74383;44.552;18.100;2023-12-22T04:12:17;97788.09;;;7.07;74.52
84245;BME280;74383;44.552;18.100;2023-12-22T04:14:42;97787.00;;;7.19;73.69
84245;BME280;74383;44.552;18.100;2023-12-22T04:17:08;97787.47;;;7.16;74.03
84245;BME280;74383;44.552;18.100;2023-12-22T04:19:33;97794.63;;;7.04;74.56
84245;BME280;74383;44.552;18.100;2023-12-22T04:21:59;97796.66;;;7.14;74.49
84245;BME280;74383;44.552;18.100;2023-12-22T04:24:24;97797.00;;;7.17;73.93
84245;BME280;74383;44.552;18.100;2023-12-22T04:26:50;97800.84;;;6.98;75.25
84245;BME280;74383;44.552;18.100;2023-12-22T04:29:16;97801.94;;;7.14;74.90
84245;BME280;74383;44.552;18.100;2023-12-22T04:31:41;97806.50;;;7.18;74.73
84245;BME280;74383;44.552;18.100;2023-12-22T04:34:07;97818.78;;;7.13;75.23
84245;BME280;74383;44.552;18.100;2023-12-22T04:36:32;97813.44;;;7.24;74.52
84245;BME280;74383;44.552;18.100;2023-12-22T04:38:58;97808.03;;;7.31;74.15
84245;BME280;74383;44.552;18.100;2023-12-22T04:41:23;97814.78;;;7.10;74.88
84245;BME280;74383;44.552;18.100;2023-12-22T04:43:49;97820.00;;;7.22;74.42
84245;BME280;74383;44.552;18.100;2023-12-22T04:46:15;97823.91;;;7.03;75.34
84245;BME280;74383;44.552;18.100;2023-12-22T04:48:40;97829.66;;;7.16;74.43
84245;BME280;74383;44.552;18.100;2023-12-22T04:51:06;97828.97;;;7.21;74.51
84245;BME280;74383;44.552;18.100;2023-12-22T04:53:31;97830.41;;;7.28;74.11
84245;BME280;74383;44.552;18.100;2023-12-22T04:55:57;97833.38;;;7.32;73.96
84245;BME280;74383;44.552;18.100;2023-12-22T04:58:23;97840.88;;;7.23;74.47
84245;BME280;74383;44.552;18.100;2023-12-22T05:00:49;97841.69;;;7.24;74.72
84245;BME280;74383;44.552;18.100;2023-12-22T05:03:15;97839.34;;;7.27;74.38
84245;BME280;74383;44.552;18.100;2023-12-22T05:05:40;97841.78;;;7.29;74.61
84245;BME280;74383;44.552;18.100;2023-12-22T05:08:06;97843.69;;;7.34;74.43
84245;BME280;74383;44.552;18.100;2023-12-22T05:10:32;97854.81;;;7.36;74.02
84245;BME280;74383;44.552;18.100;2023-12-22T05:12:57;97852.66;;;7.33;74.19
84245;BME280;74383;44.552;18.100;2023-12-22T05:15:23;97862.63;;;7.31;74.39
84245;BME280;74383;44.552;18.100;2023-12-22T05:17:49;97858.50;;;7.35;74.42
84245;BME280;74383;44.552;18.100;2023-12-22T05:20:14;97867.34;;;7.28;75.15
84245;BME280;74383;44.552;18.100;2023-12-22T05:22:40;97872.88;;;7.27;75.32
84245;BME280;74383;44.552;18.100;2023-12-22T05:25:06;97868.81;;;7.08;76.34
84245;BME280;74383;44.552;18.100;2023-12-22T05:27:32;97891.41;;;7.15;76.10
84245;BME280;74383;44.552;18.100;2023-12-22T05:29:58;97909.53;;;7.12;75.88
84245;BME280;74383;44.552;18.100;2023-12-22T05:32:27;97904.59;;;7.04;76.89
84245;BME280;74383;44.552;18.100;2023-12-22T05:34:52;97904.75;;;6.97;77.64
84245;BME280;74383;44.552;18.100;2023-12-22T05:37:18;97924.81;;;6.98;78.62
84245;BME280;74383;44.552;18.100;2023-12-22T05:39:44;97919.22;;;6.83;79.77
84245;BME280;74383;44.552;18.100;2023-12-22T05:42:11;97900.34;;;6.75;79.93
84245;BME280;74383;44.552;18.100;2023-12-22T05:44:36;97905.09;;;6.89;79.12
84245;BME280;74383;44.552;18.100;2023-12-22T05:47:05;97940.97;;;7.02;79.11
84245;BME280;74383;44.552;18.100;2023-12-22T05:49:30;97955.91;;;6.96;79.45
84245;BME280;74383;44.552;18.100;2023-12-22T05:51:56;97972.88;;;6.77;81.07
84245;BME280;74383;44.552;18.100;2023-12-22T05:54:22;97972.66;;;6.90;80.17
84245;BME280;74383;44.552;18.100;2023-12-22T05:56:48;97985.47;;;6.98;79.76
84245;BME280;74383;44.552;18.100;2023-12-22T05:59:16;98001.19;;;6.82;80.82
84245;BME280;74383;44.552;18.100;2023-12-22T06:01:42;98003.59;;;6.83;81.35
84245;BME280;74383;44.552;18.100;2023-12-22T06:04:07;98011.50;;;6.83;81.14
84245;BME280;74383;44.552;18.100;2023-12-22T06:06:33;98018.72;;;6.99;79.52
84245;BME280;74383;44.552;18.100;2023-12-22T06:08:58;98032.94;;;7.21;77.85
84245;BME280;74383;44.552;18.100;2023-12-22T06:11:24;98029.63;;;7.43;76.99
84245;BME280;74383;44.552;18.100;2023-12-22T06:13:49;98022.59;;;7.60;76.11
84245;BME280;74383;44.552;18.100;2023-12-22T06:16:16;98031.16;;;7.67;75.75
84245;BME280;74383;44.552;18.100;2023-12-22T06:18:43;98037.25;;;7.67;76.54
84245;BME280;74383;44.552;18.100;2023-12-22T06:21:10;98042.78;;;7.66;77.49
84245;BME280;74383;44.552;18.100;2023-12-22T06:23:36;98044.75;;;7.59;78.08
84245;BME280;74383;44.552;18.100;2023-12-22T06:26:07;98053.13;;;7.56;78.25
84245;BME280;74383;44.552;18.100;2023-12-22T06:28:33;98052.56;;;7.54;78.76
84245;BME280;74383;44.552;18.100;2023-12-22T06:30:58;98061.75;;;7.51;79.23
84245;BME280;74383;44.552;18.100;2023-12-22T06:33:24;98076.44;;;7.59;78.97
84245;BME280;74383;44.552;18.100;2023-12-22T06:35:50;98079.06;;;7.59;79.26
84245;BME280;74383;44.552;18.100;2023-12-22T06:38:19;98082.09;;;7.51;80.43
84245;BME280;74383;44.552;18.100;2023-12-22T06:40:45;98081.75;;;7.47;81.01
84245;BME280;74383;44.552;18.100;2023-12-22T06:43:12;98082.53;;;7.48;81.16
84245;BME280;74383;44.552;18.100;2023-12-22T06:45:38;98098.00;;;7.56;80.99
84245;BME280;74383;44.552;18.100;2023-12-22T06:48:07;98112.38;;;7.60;80.77
84245;BME280;74383;44.552;18.100;2023-12-22T06:50:35;98114.53;;;7.63;80.95
84245;BME280;74383;44.552;18.100;2023-12-22T06:53:03;98134.72;;;7.69;80.66
84245;BME280;74383;44.552;18.100;2023-12-22T06:55:29;98124.94;;;7.69;80.50
84245;BME280;74383;44.552;18.100;2023-12-22T06:57:55;98122.09;;;7.71;80.71
84245;BME280;74383;44.552;18.100;2023-12-22T07:00:21;98117.16;;;7.74;80.84
84245;BME280;74383;44.552;18.100;2023-12-22T07:02:47;98119.31;;;7.77;80.31
84245;BME280;74383;44.552;18.100;2023-12-22T07:07:47;98125.28;;;7.73;80.33
84245;BME280;74383;44.552;18.100;2023-12-22T07:10:13;98130.19;;;7.81;80.25
84245;BME280;74383;44.552;18.100;2023-12-22T07:12:38;98132.84;;;7.81;80.21
84245;BME280;74383;44.552;18.100;2023-12-22T07:15:05;98141.56;;;7.81;80.02
84245;BME280;74383;44.552;18.100;2023-12-22T07:17:33;98143.88;;;7.78;81.27
84245;BME280;74383;44.552;18.100;2023-12-22T07:19:58;98137.16;;;7.59;81.74
84245;BME280;74383;44.552;18.100;2023-12-22T07:22:24;98153.22;;;7.46;82.97
84245;BME280;74383;44.552;18.100;2023-12-22T07:24:50;98144.38;;;7.52;82.96
84245;BME280;74383;44.552;18.100;2023-12-22T07:27:18;98148.66;;;7.41;83.48
84245;BME280;74383;44.552;18.100;2023-12-22T07:29:43;98134.53;;;7.47;83.50
84245;BME280;74383;44.552;18.100;2023-12-22T07:32:09;98134.75;;;7.46;83.77
84245;BME280;74383;44.552;18.100;2023-12-22T07:34:35;98158.16;;;7.54;83.55
84245;BME280;74383;44.552;18.100;2023-12-22T07:37:01;98169.75;;;7.53;83.19
84245;BME280;74383;44.552;18.100;2023-12-22T07:39:33;98170.53;;;7.65;83.02
84245;BME280;74383;44.552;18.100;2023-12-22T07:41:59;98183.50;;;7.55;83.56
84245;BME280;74383;44.552;18.100;2023-12-22T07:44:25;98178.03;;;7.56;83.76
84245;BME280;74383;44.552;18.100;2023-12-22T07:46:58;98182.38;;;7.62;83.33
84245;BME280;74383;44.552;18.100;2023-12-22T07:49:24;98185.00;;;7.74;83.10
84245;BME280;74383;44.552;18.100;2023-12-22T07:51:51;98178.19;;;7.78;82.87
84245;BME280;74383;44.552;18.100;2023-12-22T07:54:17;98171.97;;;7.84;82.59
84245;BME280;74383;44.552;18.100;2023-12-22T07:56:52;98175.09;;;7.81;82.41
84245;BME280;74383;44.552;18.100;2023-12-22T07:59:18;98183.69;;;7.88;81.91
84245;BME280;74383;44.552;18.100;2023-12-22T08:01:43;98183.59;;;7.83;82.41
84245;BME280;74383;44.552;18.100;2023-12-22T08:04:09;98184.97;;;7.86;82.42
84245;BME280;74383;44.552;18.100;2023-12-22T08:06:35;98179.09;;;7.95;81.97
84245;BME280;74383;44.552;18.100;2023-12-22T08:09:01;98187.50;;;7.92;81.87
84245;BME280;74383;44.552;18.100;2023-12-22T08:11:26;98184.25;;;7.90;82.02
84245;BME280;74383;44.552;18.100;2023-12-22T08:13:53;98186.00;;;7.84;82.30
84245;BME280;74383;44.552;18.100;2023-12-22T08:16:19;98183.28;;;7.68;83.09
84245;BME280;74383;44.552;18.100;2023-12-22T08:18:45;98199.81;;;7.75;82.78
84245;BME280;74383;44.552;18.100;2023-12-22T08:21:10;98207.25;;;7.78;82.75
84245;BME280;74383;44.552;18.100;2023-12-22T08:23:36;98222.75;;;7.86;82.22
84245;BME280;74383;44.552;18.100;2023-12-22T08:26:02;98229.53;;;7.82;81.94
84245;BME280;74383;44.552;18.100;2023-12-22T08:28:27;98217.50;;;7.63;83.20
84245;BME280;74383;44.552;18.100;2023-12-22T08:30:53;98210.84;;;7.49;84.14
84245;BME280;74383;44.552;18.100;2023-12-22T08:33:19;98225.09;;;7.48;84.58
84245;BME280;74383;44.552;18.100;2023-12-22T08:35:45;98227.47;;;7.61;84.29
84245;BME280;74383;44.552;18.100;2023-12-22T08:38:14;98235.38;;;7.72;83.47
84245;BME280;74383;44.552;18.100;2023-12-22T08:40:40;98237.09;;;7.78;83.16
84245;BME280;74383;44.552;18.100;2023-12-22T08:43:06;98234.72;;;7.77;83.22
84245;BME280;74383;44.552;18.100;2023-12-22T08:45:32;98233.09;;;7.76;83.20
84245;BME280;74383;44.552;18.100;2023-12-22T08:47:57;98243.44;;;7.89;83.08
84245;BME280;74383;44.552;18.100;2023-12-22T08:50:23;98250.44;;;7.95;82.35
84245;BME280;74383;44.552;18.100;2023-12-22T08:52:49;98255.00;;;8.00;82.36
84245;BME280;74383;44.552;18.100;2023-12-22T08:55:15;98263.47;;;8.02;81.70
84245;BME280;74383;44.552;18.100;2023-12-22T08:57:41;98266.72;;;8.04;82.30
84245;BME280;74383;44.552;18.100;2023-12-22T09:00:07;98251.34;;;7.89;82.30
84245;BME280;74383;44.552;18.100;2023-12-22T09:02:33;98251.69;;;7.81;83.49
84245;BME280;74383;44.552;18.100;2023-12-22T09:04:58;98266.59;;;7.87;83.36
84245;BME280;74383;44.552;18.100;2023-12-22T09:07:24;98277.88;;;7.94;82.64
84245;BME280;74383;44.552;18.100;2023-12-22T09:09:50;98274.19;;;7.95;82.48
84245;BME280;74383;44.552;18.100;2023-12-22T09:12:15;98273.59;;;8.05;82.25
84245;BME280;74383;44.552;18.100;2023-12-22T09:14:41;98270.84;;;8.11;82.02
84245;BME280;74383;44.552;18.100;2023-12-22T09:17:07;98268.19;;;8.11;81.63
84245;BME280;74383;44.552;18.100;2023-12-22T09:19:33;98249.03;;;8.04;82.50
84245;BME280;74383;44.552;18.100;2023-12-22T09:22:04;98235.91;;;8.09;82.64
84245;BME280;74383;44.552;18.100;2023-12-22T09:24:29;98251.06;;;8.14;82.08
84245;BME280;74383;44.552;18.100;2023-12-22T09:26:55;98258.69;;;8.10;82.24
84245;BME280;74383;44.552;18.100;2023-12-22T09:29:28;98244.56;;;7.81;83.43
84245;BME280;74383;44.552;18.100;2023-12-22T09:31:54;98237.25;;;7.72;84.63
84245;BME280;74383;44.552;18.100;2023-12-22T09:34:20;98230.44;;;7.88;84.54
84245;BME280;74383;44.552;18.100;2023-12-22T09:36:46;98210.81;;;7.60;84.32
84245;BME280;74383;44.552;18.100;2023-12-22T09:39:11;98195.22;;;7.59;85.21
84245;BME280;74383;44.552;18.100;2023-12-22T09:41:48;98198.56;;;7.66;84.73
84245;BME280;74383;44.552;18.100;2023-12-22T09:44:19;98185.34;;;7.66;85.00
84245;BME280;74383;44.552;18.100;2023-12-22T09:46:47;98205.78;;;7.70;84.50
84245;BME280;74383;44.552;18.100;2023-12-22T09:49:14;98209.56;;;7.74;84.32
84245;BME280;74383;44.552;18.100;2023-12-22T09:51:41;98226.31;;;7.80;83.86
84245;BME280;74383;44.552;18.100;2023-12-22T09:54:09;98217.81;;;7.78;84.08
84245;BME280;74383;44.552;18.100;2023-12-22T09:56:36;98214.94;;;7.79;83.71
84245;BME280;74383;44.552;18.100;2023-12-22T09:59:11;98214.59;;;7.76;83.39
84245;BME280;74383;44.552;18.100;2023-12-22T10:01:48;98196.69;;;7.78;83.75
84245;BME280;74383;44.552;18.100;2023-12-22T10:04:16;98198.28;;;7.79;83.78
84245;BME280;74383;44.552;18.100;2023-12-22T10:06:44;98193.56;;;7.81;83.33
84245;BME280;74383;44.552;18.100;2023-12-22T10:09:11;98190.00;;;7.87;83.43
84245;BME280;74383;44.552;18.100;2023-12-22T10:11:40;98193.81;;;7.91;82.90
84245;BME280;74383;44.552;18.100;2023-12-22T10:14:09;98196.53;;;7.96;82.95
84245;BME280;74383;44.552;18.100;2023-12-22T10:16:36;98188.91;;;8.11;82.65
84245;BME280;74383;44.552;18.100;2023-12-22T10:19:03;98199.34;;;8.29;82.27
84245;BME280;74383;44.552;18.100;2023-12-22T10:21:29;98206.88;;;8.49;81.79
84245;BME280;74383;44.552;18.100;2023-12-22T10:23:57;98211.38;;;8.65;81.54
84245;BME280;74383;44.552;18.100;2023-12-22T10:26:22;98198.84;;;8.72;80.48
84245;BME280;74383;44.552;18.100;2023-12-22T10:28:48;98207.50;;;8.84;80.49
84245;BME280;74383;44.552;18.100;2023-12-22T10:31:17;98200.94;;;8.87;80.24
84245;BME280;74383;44.552;18.100;2023-12-22T10:33:43;98200.66;;;8.72;79.72
84245;BME280;74383;44.552;18.100;2023-12-22T10:36:10;98206.34;;;8.64;80.36
84245;BME280;74383;44.552;18.100;2023-12-22T10:38:35;98213.34;;;8.70;80.16
84245;BME280;74383;44.552;18.100;2023-12-22T10:41:06;98209.31;;;8.67;80.32
84245;BME280;74383;44.552;18.100;2023-12-22T10:43:38;98209.75;;;8.76;80.09
84245;BME280;74383;44.552;18.100;2023-12-22T10:46:03;98201.53;;;8.61;79.44
84245;BME280;74383;44.552;18.100;2023-12-22T10:48:29;98204.81;;;8.68;79.01
84245;BME280;74383;44.552;18.100;2023-12-22T10:50:55;98195.97;;;8.46;79.27
84245;BME280;74383;44.552;18.100;2023-12-22T10:53:21;98194.13;;;8.46;79.48
84245;BME280;74383;44.552;18.100;2023-12-22T10:55:49;98187.44;;;8.44;79.69
84245;BME280;74383;44.552;18.100;2023-12-22T10:58:18;98188.69;;;8.53;79.59
84245;BME280;74383;44.552;18.100;2023-12-22T11:00:47;98198.31;;;8.59;79.47
84245;BME280;74383;44.552;18.100;2023-12-22T11:03:17;98191.91;;;8.55;80.09
84245;BME280;74383;44.552;18.100;2023-12-22T11:05:47;98181.56;;;8.53;79.68
84245;BME280;74383;44.552;18.100;2023-12-22T11:08:15;98182.44;;;8.59;79.14
84245;BME280;74383;44.552;18.100;2023-12-22T11:10:42;98177.41;;;8.57;78.77
84245;BME280;74383;44.552;18.100;2023-12-22T11:13:12;98173.63;;;8.53;78.21
84245;BME280;74383;44.552;18.100;2023-12-22T11:15:39;98169.47;;;8.57;77.33
84245;BME280;74383;44.552;18.100;2023-12-22T11:18:05;98159.38;;;8.71;77.41
84245;BME280;74383;44.552;18.100;2023-12-22T11:20:32;98154.13;;;8.87;76.68
84245;BME280;74383;44.552;18.100;2023-12-22T11:23:02;98150.88;;;9.35;75.28
84245;BME280;74383;44.552;18.100;2023-12-22T11:25:28;98151.16;;;9.77;73.89
84245;BME280;74383;44.552;18.100;2023-12-22T11:27:55;98151.84;;;9.89;73.18
84245;BME280;74383;44.552;18.100;2023-12-22T11:30:22;98145.91;;;10.04;72.62
84245;BME280;74383;44.552;18.100;2023-12-22T11:32:49;98134.91;;;10.12;72.74
84245;BME280;74383;44.552;18.100;2023-12-22T11:35:16;98131.63;;;10.05;73.38
84245;BME280;74383;44.552;18.100;2023-12-22T11:37:43;98132.94;;;10.02;73.62
84245;BME280;74383;44.552;18.100;2023-12-22T11:40:09;98130.16;;;9.92;74.01
84245;BME280;74383;44.552;18.100;2023-12-22T11:42:39;98130.66;;;9.89;73.75
84245;BME280;74383;44.552;18.100;2023-12-22T11:45:11;98131.16;;;9.86;73.49
84245;BME280;74383;44.552;18.100;2023-12-22T11:47:37;98130.78;;;9.78;74.72
84245;BME280;74383;44.552;18.100;2023-12-22T11:50:08;98126.91;;;9.85;72.45
84245;BME280;74383;44.552;18.100;2023-12-22T11:52:35;98136.38;;;10.03;72.70
84245;BME280;74383;44.552;18.100;2023-12-22T11:55:00;98126.53;;;10.47;70.13
84245;BME280;74383;44.552;18.100;2023-12-22T11:59:57;98107.97;;;11.15;66.23
84245;BME280;74383;44.552;18.100;2023-12-22T12:02:23;98097.34;;;11.62;64.95
84245;BME280;74383;44.552;18.100;2023-12-22T12:04:50;98089.66;;;12.73;64.00
84245;BME280;74383;44.552;18.100;2023-12-22T12:10:10;98090.38;;;13.40;59.60
84245;BME280;74383;44.552;18.100;2023-12-22T12:12:36;98076.97;;;13.70;57.52
84245;BME280;74383;44.552;18.100;2023-12-22T12:15:17;98084.69;;;13.66;56.52
84245;BME280;74383;44.552;18.100;2023-12-22T12:17:42;98101.00;;;13.55;55.81
84245;BME280;74383;44.552;18.100;2023-12-22T12:20:09;98093.63;;;13.01;56.67
84245;BME280;74383;44.552;18.100;2023-12-22T12:22:36;98106.66;;;12.62;57.56
84245;BME280;74383;44.552;18.100;2023-12-22T12:25:09;98108.22;;;12.23;57.42
84245;BME280;74383;44.552;18.100;2023-12-22T12:27:35;98115.34;;;12.02;58.91
84245;BME280;74383;44.552;18.100;2023-12-22T12:30:21;98119.81;;;11.87;58.94
84245;BME280;74383;44.552;18.100;2023-12-22T12:32:48;98120.56;;;11.30;60.71
84245;BME280;74383;44.552;18.100;2023-12-22T12:35:14;98122.84;;;10.80;61.83
84245;BME280;74383;44.552;18.100;2023-12-22T12:37:40;98132.81;;;10.68;62.10
84245;BME280;74383;44.552;18.100;2023-12-22T12:40:11;98125.53;;;10.26;63.91
84245;BME280;74383;44.552;18.100;2023-12-22T12:42:37;98126.69;;;9.92;64.48
84245;BME280;74383;44.552;18.100;2023-12-22T12:45:04;98150.88;;;9.74;65.15
84245;BME280;74383;44.552;18.100;2023-12-22T12:47:31;98174.53;;;9.80;65.64
84245;BME280;74383;44.552;18.100;2023-12-22T12:50:00;98123.13;;;9.60;67.13
84245;BME280;74383;44.552;18.100;2023-12-22T12:52:26;98124.53;;;9.45;68.08
84245;BME280;74383;44.552;18.100;2023-12-22T12:54:52;98122.81;;;9.34;68.64
84245;BME280;74383;44.552;18.100;2023-12-22T12:57:18;98110.84;;;9.32;68.75
84245;BME280;74383;44.552;18.100;2023-12-22T12:59:48;98113.94;;;9.45;68.73
84245;BME280;74383;44.552;18.100;2023-12-22T13:02:18;98120.38;;;9.49;69.36
84245;BME280;74383;44.552;18.100;2023-12-22T13:04:46;98122.66;;;9.24;68.41
84245;BME280;74383;44.552;18.100;2023-12-22T13:07:11;98120.09;;;9.13;69.10